createdAt,value
2023-04-17T00:01:44.602Z,100.00
2023-04-17T00:04:13.477Z,100.00
2023-04-17T00:06:43.685Z,100.00
2023-04-17T00:09:12.523Z,100.00
2023-04-17T00:11:39.852Z,100.00
2023-04-17T00:14:06.973Z,100.00
2023-04-17T00:16:33.990Z,100.00
2023-04-17T00:19:01.100Z,100.00
2023-04-17T00:21:30.183Z,100.00
2023-04-17T00:23:57.222Z,100.00
2023-04-17T00:26:24.746Z,100.00
2023-04-17T00:28:52.281Z,100.00
2023-04-17T00:31:19.415Z,100.00
2023-04-17T00:33:46.863Z,100.00
2023-04-17T00:36:15.627Z,100.00
2023-04-17T00:38:42.880Z,100.00
2023-04-17T00:41:11.270Z,100.00
2023-04-17T00:43:38.935Z,100.00
2023-04-17T00:46:06.655Z,100.00
2023-04-17T00:48:35.753Z,100.00
2023-04-17T00:51:03.578Z,100.00
2023-04-17T00:53:34.278Z,100.00
2023-04-17T00:56:03.432Z,100.00
2023-04-17T00:58:31.410Z,100.00
2023-04-17T01:00:58.657Z,100.00
2023-04-17T01:03:26.302Z,100.00
2023-04-17T01:05:53.648Z,100.00
2023-04-17T01:08:20.556Z,100.00
2023-04-17T01:10:47.525Z,100.00
2023-04-17T01:13:14.524Z,100.00
2023-04-17T01:15:41.529Z,100.00
2023-04-17T01:18:08.827Z,100.00
2023-04-17T01:20:36.314Z,100.00
2023-04-17T01:23:03.251Z,100.00
2023-04-17T01:25:30.342Z,100.00
2023-04-17T01:27:57.373Z,100.00
2023-04-17T01:30:24.470Z,100.00
2023-04-17T01:32:54.540Z,100.00
2023-04-17T01:35:21.512Z,100.00
2023-04-17T01:37:48.483Z,100.00
2023-04-17T01:40:15.580Z,100.00
2023-04-17T01:42:42.486Z,100.00
2023-04-17T01:45:09.847Z,100.00
2023-04-17T01:47:36.813Z,100.00
2023-04-17T01:50:04.462Z,100.00
2023-04-17T01:52:31.464Z,100.00
2023-04-17T01:54:58.732Z,100.00
2023-04-17T01:57:26.019Z,100.00
2023-04-17T01:59:52.955Z,100.00
2023-04-17T02:02:20.246Z,100.00
2023-04-17T02:04:47.259Z,100.00
2023-04-17T02:07:14.184Z,100.00
2023-04-17T02:09:41.673Z,100.00
2023-04-17T02:12:08.637Z,100.00
2023-04-17T02:14:35.615Z,100.00
2023-04-17T02:17:02.768Z,100.00
2023-04-17T02:19:29.634Z,100.00
2023-04-17T02:21:57.369Z,100.00
2023-04-17T02:24:24.293Z,100.00
2023-04-17T02:26:51.305Z,100.00
2023-04-17T02:29:18.236Z,100.00
2023-04-17T02:31:45.216Z,100.00
2023-04-17T02:34:12.245Z,100.00
2023-04-17T02:36:39.179Z,100.00
2023-04-17T02:39:06.175Z,100.00
2023-04-17T02:41:33.123Z,100.00
2023-04-17T02:44:02.145Z,100.00
2023-04-17T02:46:29.394Z,100.00
2023-04-17T02:48:56.350Z,100.00
2023-04-17T02:51:23.280Z,100.00
2023-04-17T02:53:50.238Z,100.00
2023-04-17T02:56:17.880Z,100.00
2023-04-17T02:58:45.777Z,100.00
2023-04-17T03:01:12.801Z,100.00
2023-04-17T03:03:42.307Z,100.00
2023-04-17T03:06:10.172Z,100.00
2023-04-17T03:08:39.014Z,100.00
2023-04-17T03:11:06.386Z,100.00
2023-04-17T03:13:35.760Z,100.00
2023-04-17T03:16:03.799Z,100.00
2023-04-17T03:18:31.324Z,100.00
2023-04-17T03:20:58.539Z,100.00
2023-04-17T03:23:25.300Z,100.00
2023-04-17T03:25:52.112Z,100.00
2023-04-17T03:28:18.877Z,100.00
2023-04-17T03:30:45.691Z,100.00
2023-04-17T03:33:12.379Z,100.00
2023-04-17T03:35:39.179Z,100.00
2023-04-17T03:38:05.964Z,100.00
2023-04-17T03:40:33.728Z,100.00
2023-04-17T03:43:01.590Z,100.00
2023-04-17T03:45:28.311Z,100.00
2023-04-17T03:47:55.082Z,100.00
2023-04-17T03:50:21.945Z,100.00
2023-04-17T03:52:48.631Z,100.00
2023-04-17T03:55:16.209Z,100.00
2023-04-17T03:57:42.952Z,100.00
2023-04-17T04:00:10.807Z,100.00
2023-04-17T04:02:37.838Z,100.00
2023-04-17T04:05:04.841Z,100.00
2023-04-17T04:07:31.620Z,100.00
2023-04-17T04:09:58.359Z,100.00
2023-04-17T04:12:25.157Z,100.00
2023-04-17T04:14:51.879Z,100.00
2023-04-17T04:17:18.769Z,100.00
2023-04-17T04:19:46.329Z,100.00
2023-04-17T04:22:13.897Z,100.00
2023-04-17T04:24:40.814Z,100.00
2023-04-17T04:27:07.873Z,100.00
2023-04-17T04:29:35.494Z,100.00
2023-04-17T04:32:02.621Z,100.00
2023-04-17T04:34:30.195Z,100.00
2023-04-17T04:36:57.482Z,100.00
2023-04-17T04:39:24.308Z,100.00
2023-04-17T04:41:52.043Z,100.00
2023-04-17T04:44:19.447Z,100.00
2023-04-17T04:46:46.556Z,100.00
2023-04-17T04:49:13.645Z,100.00
2023-04-17T04:51:40.742Z,100.00
2023-04-17T04:54:07.500Z,100.00
2023-04-17T04:56:34.304Z,100.00
2023-04-17T04:59:01.048Z,100.00
2023-04-17T05:01:28.242Z,100.00
2023-04-17T05:03:55.216Z,100.00
2023-04-17T05:06:22.063Z,100.00
2023-04-17T05:08:48.925Z,100.00
2023-04-17T05:11:15.736Z,100.00
2023-04-17T05:13:42.527Z,100.00
2023-04-17T05:16:09.313Z,100.00
2023-04-17T05:18:36.120Z,100.00
2023-04-17T05:21:02.815Z,100.00
2023-04-17T05:23:29.636Z,100.00
2023-04-17T05:25:56.379Z,100.00
2023-04-17T05:28:23.265Z,100.00
2023-04-17T05:30:49.997Z,100.00
2023-04-17T05:33:16.807Z,100.00
2023-04-17T05:35:43.520Z,100.00
2023-04-17T05:38:10.271Z,100.00
2023-04-17T05:40:37.132Z,100.00
2023-04-17T05:43:08.416Z,100.00
2023-04-17T05:45:35.243Z,100.00
2023-04-17T05:48:02.192Z,100.00
2023-04-17T05:50:29.122Z,100.00
2023-04-17T05:52:56.815Z,100.00
2023-04-17T05:55:23.592Z,100.00
2023-04-17T05:57:50.310Z,100.00
2023-04-17T06:00:17.212Z,100.00
2023-04-17T06:02:44.139Z,100.00
2023-04-17T06:05:11.228Z,100.00
2023-04-17T06:07:38.775Z,100.00
2023-04-17T06:10:06.153Z,100.00
2023-04-17T06:12:32.896Z,100.00
2023-04-17T06:14:59.617Z,100.00
2023-04-17T06:17:26.465Z,100.00
2023-04-17T06:19:53.204Z,100.00
2023-04-17T06:22:19.981Z,100.00
2023-04-17T06:24:46.718Z,100.00
2023-04-17T06:27:13.574Z,100.00
2023-04-17T06:29:40.318Z,100.00
2023-04-17T06:32:07.040Z,100.00
2023-04-17T06:34:34.210Z,100.00
2023-04-17T06:37:01.373Z,100.00
2023-04-17T06:39:28.101Z,100.00
2023-04-17T06:41:56.362Z,100.00
2023-04-17T06:44:23.150Z,100.00
2023-04-17T06:46:51.757Z,100.00
2023-04-17T06:49:18.613Z,100.00
2023-04-17T06:51:46.178Z,100.00
2023-04-17T06:54:13.381Z,100.00
2023-04-17T06:56:41.071Z,100.00
2023-04-17T06:59:07.805Z,100.00
2023-04-17T07:01:35.271Z,100.00
2023-04-17T07:04:02.528Z,100.00
2023-04-17T07:06:29.333Z,100.00
2023-04-17T07:08:56.095Z,100.00
2023-04-17T07:11:22.860Z,100.00
2023-04-17T07:13:49.580Z,100.00
2023-04-17T07:16:16.588Z,100.00
2023-04-17T07:18:43.641Z,100.00
2023-04-17T07:21:10.522Z,100.00
2023-04-17T07:23:37.327Z,100.00
2023-04-17T07:26:04.144Z,100.00
2023-04-17T07:28:30.920Z,100.00
2023-04-17T07:30:58.987Z,100.00
2023-04-17T07:33:25.887Z,100.00
2023-04-17T07:35:54.046Z,100.00
2023-04-17T07:38:20.793Z,100.00
2023-04-17T07:40:47.496Z,100.00
2023-04-17T07:43:14.233Z,100.00
2023-04-17T07:45:42.053Z,100.00
2023-04-17T07:48:09.176Z,100.00
2023-04-17T07:50:36.039Z,100.00
2023-04-17T07:53:02.830Z,100.00
2023-04-17T07:55:29.635Z,100.00
2023-04-17T07:57:56.880Z,100.00
2023-04-17T08:00:24.242Z,100.00
2023-04-17T08:02:51.152Z,100.00
2023-04-17T08:05:18.049Z,100.00
2023-04-17T08:07:44.897Z,100.00
2023-04-17T08:10:11.638Z,100.00
2023-04-17T08:12:38.516Z,100.00
2023-04-17T08:15:05.723Z,100.00
2023-04-17T08:17:33.628Z,100.00
2023-04-17T08:20:02.356Z,100.00
2023-04-17T08:22:29.339Z,100.00
2023-04-17T08:24:59.875Z,100.00
2023-04-17T08:27:26.802Z,100.00
2023-04-17T08:29:56.734Z,100.00
2023-04-17T08:32:23.587Z,100.00
2023-04-17T08:34:50.400Z,100.00
2023-04-17T08:37:17.181Z,100.00
2023-04-17T08:39:44.025Z,100.00
2023-04-17T08:42:15.855Z,100.00
2023-04-17T08:44:44.625Z,100.00
2023-04-17T08:47:12.730Z,100.00
2023-04-17T08:49:43.656Z,100.00
2023-04-17T08:52:11.602Z,100.00
2023-04-17T08:54:39.179Z,100.00
2023-04-17T08:57:06.035Z,100.00
2023-04-17T08:59:33.177Z,100.00
2023-04-17T09:02:07.216Z,100.00
2023-04-17T09:04:35.417Z,100.00
2023-04-17T09:07:02.421Z,100.00
2023-04-17T09:09:48.006Z,100.00
2023-04-17T09:12:14.998Z,100.00
2023-04-17T09:14:41.759Z,100.00
2023-04-17T09:17:08.519Z,100.00
2023-04-17T09:19:35.479Z,100.00
2023-04-17T09:22:21.672Z,100.00
2023-04-17T09:24:48.884Z,100.00
2023-04-17T09:27:22.618Z,100.00
2023-04-17T09:29:59.221Z,100.00
2023-04-17T09:32:26.693Z,100.00
2023-04-17T09:34:53.895Z,100.00
2023-04-17T09:37:21.211Z,100.00
2023-04-17T09:40:01.539Z,100.00
2023-04-17T09:42:28.745Z,100.00
2023-04-17T09:44:55.540Z,100.00
2023-04-17T09:47:23.047Z,100.00
2023-04-17T09:49:52.694Z,100.00
2023-04-17T09:52:20.867Z,100.00
2023-04-17T09:54:47.821Z,100.00
2023-04-17T09:57:14.822Z,100.00
2023-04-17T09:59:42.079Z,100.00
2023-04-17T10:02:12.813Z,100.00
2023-04-17T10:04:40.862Z,100.00
2023-04-17T10:07:07.736Z,100.00
2023-04-17T10:09:34.789Z,100.00
2023-04-17T10:12:04.164Z,100.00
2023-04-17T10:14:32.962Z,100.00
2023-04-17T10:17:00.111Z,100.00
2023-04-17T10:19:31.309Z,100.00
2023-04-17T10:22:18.169Z,100.00
2023-04-17T10:24:45.905Z,100.00
2023-04-17T10:27:36.418Z,100.00
2023-04-17T10:30:04.424Z,100.00
2023-04-17T10:32:31.832Z,100.00
2023-04-17T10:34:59.611Z,100.00
2023-04-17T10:37:44.935Z,100.00
2023-04-17T10:40:12.532Z,100.00
2023-04-17T10:42:41.030Z,100.00
2023-04-17T10:45:18.410Z,100.00
2023-04-17T10:47:58.272Z,100.00
2023-04-17T10:50:28.939Z,100.00
2023-04-17T10:52:55.725Z,100.00
2023-04-17T10:55:23.342Z,100.00
2023-04-17T10:57:57.609Z,100.00
2023-04-17T11:00:36.128Z,100.00
2023-04-17T11:03:04.153Z,100.00
2023-04-17T11:05:35.903Z,100.00
2023-04-17T11:08:02.943Z,100.00
2023-04-17T11:10:29.829Z,100.00
2023-04-17T11:12:59.434Z,100.00
2023-04-17T11:15:27.276Z,100.00
2023-04-17T11:17:54.542Z,100.00
2023-04-17T11:20:22.109Z,100.00
2023-04-17T11:22:49.003Z,100.00
2023-04-17T11:25:22.864Z,96.05
2023-04-17T11:27:56.571Z,93.26
2023-04-17T11:30:33.408Z,88.15
2023-04-17T11:33:04.617Z,89.99
2023-04-17T11:35:35.695Z,86.53
2023-04-17T11:38:05.426Z,88.12
2023-04-17T11:40:32.307Z,89.95
2023-04-17T11:43:03.584Z,92.90
2023-04-17T11:45:34.464Z,87.77
2023-04-17T11:48:02.542Z,91.58
2023-04-17T11:50:31.039Z,91.26
2023-04-17T11:53:01.781Z,87.97
2023-04-17T11:55:31.551Z,89.41
2023-04-17T11:57:58.707Z,92.40
2023-04-17T12:00:32.440Z,89.83
2023-04-17T12:03:00.535Z,84.37
2023-04-17T12:05:28.914Z,84.99
2023-04-17T12:08:13.661Z,88.35
2023-04-17T12:10:42.213Z,87.70
2023-04-17T12:13:09.607Z,85.25
2023-04-17T12:15:36.782Z,84.54
2023-04-17T12:18:09.071Z,85.50
2023-04-17T12:20:36.664Z,81.36
2023-04-17T12:23:04.274Z,82.13
2023-04-17T12:25:31.637Z,81.11
2023-04-17T12:27:59.630Z,82.02
2023-04-17T12:30:27.162Z,82.87
2023-04-17T12:32:54.429Z,84.96
2023-04-17T12:35:22.238Z,86.00
2023-04-17T12:37:51.456Z,85.57
2023-04-17T12:40:19.104Z,80.75
2023-04-17T12:42:49.614Z,82.29
2023-04-17T12:45:17.278Z,81.60
2023-04-17T12:47:44.103Z,86.67
2023-04-17T12:50:12.118Z,85.40
2023-04-17T12:52:39.143Z,85.04
2023-04-17T12:55:07.769Z,86.95
2023-04-17T12:57:35.933Z,86.82
2023-04-17T13:00:03.101Z,86.26
2023-04-17T13:02:29.949Z,87.47
2023-04-17T13:04:56.901Z,87.14
2023-04-17T13:07:23.699Z,88.92
2023-04-17T13:09:50.506Z,89.67
2023-04-17T13:12:17.258Z,91.18
2023-04-17T13:14:44.006Z,88.75
2023-04-17T13:17:10.710Z,88.64
2023-04-17T13:19:38.380Z,88.98
2023-04-17T13:22:05.111Z,85.64
2023-04-17T13:24:31.833Z,84.23
2023-04-17T13:26:58.568Z,87.70
2023-04-17T13:29:25.859Z,85.25
2023-04-17T13:31:52.773Z,86.87
2023-04-17T13:34:19.976Z,86.64
2023-04-17T13:36:47.622Z,86.95
2023-04-17T13:39:15.242Z,86.73
2023-04-17T13:41:42.807Z,87.58
2023-04-17T13:44:09.592Z,81.53
2023-04-17T13:46:36.826Z,76.94
2023-04-17T13:49:03.775Z,78.73
2023-04-17T13:51:31.869Z,81.72
2023-04-17T13:53:59.071Z,79.94
2023-04-17T13:56:27.078Z,82.37
2023-04-17T13:58:54.828Z,85.22
2023-04-17T14:01:21.744Z,88.75
2023-04-17T14:03:48.716Z,88.05
2023-04-17T14:06:17.980Z,89.54
2023-04-17T14:08:45.882Z,90.05
2023-04-17T14:11:13.390Z,89.08
2023-04-17T14:13:40.332Z,88.83
2023-04-17T14:16:07.248Z,90.31
2023-04-17T14:18:34.075Z,97.73
2023-04-17T14:21:01.031Z,100.00
2023-04-17T14:23:27.984Z,100.00
2023-04-17T14:25:54.702Z,100.00
2023-04-17T14:28:21.509Z,100.00
2023-04-17T14:30:48.572Z,100.00
2023-04-17T14:33:15.381Z,100.00
2023-04-17T14:35:42.211Z,100.00
2023-04-17T14:38:09.102Z,100.00
2023-04-17T14:40:35.886Z,100.00
2023-04-17T14:43:02.746Z,100.00
2023-04-17T14:45:29.950Z,100.00
2023-04-17T14:47:56.910Z,100.00
2023-04-17T14:50:23.704Z,100.00
2023-04-17T14:52:50.719Z,100.00
2023-04-17T14:55:17.472Z,100.00
2023-04-17T14:57:44.206Z,100.00
2023-04-17T15:00:11.159Z,100.00
2023-04-17T15:02:38.947Z,100.00
2023-04-17T15:05:06.606Z,100.00
2023-04-17T15:07:36.082Z,100.00
2023-04-17T15:10:02.811Z,100.00
2023-04-17T15:12:29.750Z,100.00
2023-04-17T15:14:56.667Z,100.00
2023-04-17T15:17:23.530Z,100.00
2023-04-17T15:19:50.338Z,100.00
2023-04-17T15:22:17.347Z,100.00
2023-04-17T15:24:44.089Z,100.00
2023-04-17T15:27:11.751Z,100.00
2023-04-17T15:29:38.922Z,100.00
2023-04-17T15:32:05.758Z,100.00
2023-04-17T15:34:34.195Z,100.00
2023-04-17T15:37:00.941Z,100.00
2023-04-17T15:39:27.689Z,100.00
2023-04-17T15:41:56.053Z,100.00
2023-04-17T15:44:22.800Z,100.00
2023-04-17T15:46:49.569Z,100.00
2023-04-17T15:49:16.421Z,100.00
2023-04-17T15:51:43.173Z,100.00
2023-04-17T15:54:12.155Z,100.00
2023-04-17T15:56:39.341Z,100.00
2023-04-17T15:59:06.065Z,100.00
2023-04-17T16:01:32.876Z,100.00
2023-04-17T16:03:59.873Z,100.00
2023-04-17T16:06:27.737Z,100.00
2023-04-17T16:08:54.666Z,100.00
2023-04-17T16:11:21.379Z,100.00
2023-04-17T16:13:48.192Z,100.00
2023-04-17T16:16:15.045Z,100.00
2023-04-17T16:18:41.881Z,100.00
2023-04-17T16:21:11.892Z,100.00
2023-04-17T16:23:39.630Z,100.00
2023-04-17T16:26:06.889Z,100.00
2023-04-17T16:28:33.897Z,100.00
2023-04-17T16:31:00.761Z,100.00
2023-04-17T16:33:27.668Z,100.00
2023-04-17T16:35:54.457Z,100.00
2023-04-17T16:38:21.263Z,100.00
2023-04-17T16:40:48.093Z,100.00
2023-04-17T16:43:14.872Z,100.00
2023-04-17T16:45:42.278Z,100.00
2023-04-17T16:48:11.361Z,100.00
2023-04-17T16:50:38.257Z,100.00
2023-04-17T16:53:05.091Z,100.00
2023-04-17T16:55:31.863Z,100.00
2023-04-17T16:58:04.464Z,100.00
2023-04-17T17:00:31.665Z,100.00
2023-04-17T17:02:58.509Z,100.00
2023-04-17T17:05:26.113Z,100.00
2023-04-17T17:07:52.964Z,100.00
2023-04-17T17:10:19.981Z,100.00
2023-04-17T17:12:46.790Z,100.00
2023-04-17T17:15:13.913Z,100.00
2023-04-17T17:17:40.638Z,100.00
2023-04-17T17:20:08.113Z,100.00
2023-04-17T17:22:34.899Z,100.00
2023-04-17T17:25:01.646Z,100.00
2023-04-17T17:27:28.560Z,100.00
2023-04-17T17:29:57.806Z,100.00
2023-04-17T17:32:25.899Z,100.00
2023-04-17T17:34:52.901Z,100.00
2023-04-17T17:37:20.204Z,100.00
2023-04-17T17:39:46.969Z,100.00
2023-04-17T17:42:13.702Z,100.00
2023-04-17T17:44:40.585Z,100.00
2023-04-17T17:47:08.030Z,100.00
2023-04-17T17:49:35.034Z,100.00
2023-04-17T17:52:01.814Z,100.00
2023-04-17T17:54:28.709Z,100.00
2023-04-17T17:56:55.600Z,100.00
2023-04-17T17:59:22.432Z,100.00
2023-04-17T18:01:49.252Z,100.00
2023-04-17T18:04:16.466Z,100.00
2023-04-17T18:06:43.503Z,100.00
2023-04-17T18:09:10.254Z,100.00
2023-04-17T18:11:37.595Z,100.00
2023-04-17T18:14:04.360Z,100.00
2023-04-17T18:16:33.006Z,100.00
2023-04-17T18:19:02.302Z,100.00
2023-04-17T18:21:30.001Z,100.00
2023-04-17T18:23:57.200Z,100.00
2023-04-17T18:26:23.883Z,100.00
2023-04-17T18:28:50.693Z,100.00
2023-04-17T18:31:17.567Z,100.00
2023-04-17T18:33:44.366Z,100.00
2023-04-17T18:36:11.240Z,100.00
2023-04-17T18:38:38.005Z,100.00
2023-04-17T18:41:04.786Z,100.00
2023-04-17T18:43:31.597Z,100.00
2023-04-17T18:45:58.309Z,100.00
2023-04-17T18:48:25.141Z,100.00
2023-04-17T18:50:51.936Z,100.00
2023-04-17T18:53:18.709Z,100.00
2023-04-17T18:55:45.619Z,100.00
2023-04-17T18:58:12.362Z,100.00
2023-04-17T19:00:39.179Z,100.00
2023-04-17T19:03:06.705Z,100.00
2023-04-17T19:05:33.604Z,100.00
2023-04-17T19:08:00.539Z,100.00
2023-04-17T19:10:27.284Z,100.00
2023-04-17T19:12:54.013Z,100.00
2023-04-17T19:15:21.243Z,100.00
2023-04-17T19:17:48.025Z,100.00
2023-04-17T19:20:16.895Z,100.00
2023-04-17T19:22:43.700Z,100.00
2023-04-17T19:25:10.850Z,100.00
2023-04-17T19:27:37.659Z,100.00
2023-04-17T19:30:04.685Z,100.00
2023-04-17T19:32:31.874Z,100.00
2023-04-17T19:34:59.057Z,100.00
2023-04-17T19:37:26.069Z,100.00
2023-04-17T19:39:56.317Z,100.00
2023-04-17T19:42:23.758Z,100.00
2023-04-17T19:44:50.567Z,100.00
2023-04-17T19:47:17.349Z,100.00
2023-04-17T19:49:44.209Z,100.00
2023-04-17T19:52:11.765Z,100.00
2023-04-17T19:54:38.825Z,100.00
2023-04-17T19:57:05.557Z,100.00
2023-04-17T19:59:32.409Z,100.00
2023-04-17T20:01:59.292Z,100.00
2023-04-17T20:04:26.140Z,100.00
2023-04-17T20:06:52.973Z,100.00
2023-04-17T20:09:19.993Z,100.00
2023-04-17T20:11:47.045Z,100.00
2023-04-17T20:14:15.900Z,100.00
2023-04-17T20:16:45.235Z,100.00
2023-04-17T20:19:14.197Z,100.00
2023-04-17T20:21:42.469Z,100.00
2023-04-17T20:24:09.289Z,100.00
2023-04-17T20:26:37.384Z,100.00
2023-04-17T20:29:07.085Z,100.00
2023-04-17T20:31:36.468Z,100.00
2023-04-17T20:34:03.784Z,100.00
2023-04-17T20:36:31.410Z,100.00
2023-04-17T20:39:00.696Z,100.00
2023-04-17T20:41:27.438Z,100.00
2023-04-17T20:44:03.244Z,100.00
2023-04-17T20:46:30.686Z,100.00
2023-04-17T20:48:57.524Z,100.00
2023-04-17T20:51:32.982Z,100.00
2023-04-17T20:53:59.755Z,100.00
2023-04-17T20:56:26.495Z,100.00
2023-04-17T20:58:53.247Z,100.00
2023-04-17T21:01:20.807Z,100.00
2023-04-17T21:03:47.947Z,100.00
2023-04-17T21:06:14.921Z,100.00
2023-04-17T21:08:41.783Z,100.00
2023-04-17T21:11:10.579Z,100.00
2023-04-17T21:13:37.432Z,100.00
2023-04-17T21:16:04.345Z,100.00
2023-04-17T21:18:33.645Z,100.00
2023-04-17T21:21:00.489Z,100.00
2023-04-17T21:23:27.258Z,100.00
2023-04-17T21:25:55.429Z,100.00
2023-04-17T21:28:22.187Z,100.00
2023-04-17T21:30:49.100Z,100.00
2023-04-17T21:33:15.848Z,100.00
2023-04-17T21:35:42.665Z,100.00
2023-04-17T21:38:09.466Z,100.00
2023-04-17T21:40:37.174Z,100.00
2023-04-17T21:43:04.184Z,100.00
2023-04-17T21:45:33.743Z,100.00
2023-04-17T21:48:00.594Z,100.00
2023-04-17T21:50:27.438Z,100.00
2023-04-17T21:52:54.226Z,100.00
2023-04-17T21:55:21.082Z,100.00
2023-04-17T21:57:47.829Z,100.00
2023-04-17T22:00:14.665Z,100.00
2023-04-17T22:02:41.596Z,100.00
2023-04-17T22:05:08.579Z,100.00
2023-04-17T22:07:43.979Z,100.00
2023-04-17T22:10:20.823Z,100.00
2023-04-17T22:12:47.532Z,100.00
2023-04-17T22:15:14.229Z,100.00
2023-04-17T22:17:41.354Z,100.00
2023-04-17T22:20:09.313Z,100.00
2023-04-17T22:22:36.075Z,100.00
2023-04-17T22:25:02.807Z,100.00
2023-04-17T22:27:29.629Z,100.00
2023-04-17T22:29:56.622Z,100.00
2023-04-17T22:32:23.504Z,100.00
2023-04-17T22:34:50.547Z,100.00
2023-04-17T22:37:18.659Z,100.00
2023-04-17T22:39:45.657Z,100.00
2023-04-17T22:42:12.304Z,100.00
2023-04-17T22:44:38.992Z,100.00
2023-04-17T22:47:05.705Z,100.00
2023-04-17T22:49:38.305Z,100.00
2023-04-17T22:52:06.383Z,100.00
2023-04-17T22:54:36.084Z,100.00
2023-04-17T22:57:05.792Z,100.00
2023-04-17T22:59:32.664Z,100.00
2023-04-17T23:01:59.520Z,100.00
2023-04-17T23:04:26.389Z,100.00
2023-04-17T23:06:53.169Z,100.00
2023-04-17T23:09:19.912Z,100.00
2023-04-17T23:11:46.980Z,100.00
2023-04-17T23:14:13.969Z,100.00
2023-04-17T23:16:40.893Z,100.00
2023-04-17T23:19:07.639Z,100.00
2023-04-17T23:21:34.410Z,100.00
2023-04-17T23:24:01.122Z,100.00
2023-04-17T23:26:27.902Z,100.00
2023-04-17T23:28:54.797Z,100.00
2023-04-17T23:31:21.560Z,100.00
2023-04-17T23:33:48.320Z,100.00
2023-04-17T23:36:15.153Z,100.00
2023-04-17T23:38:41.892Z,100.00
2023-04-17T23:41:08.667Z,100.00
2023-04-17T23:43:35.476Z,100.00
2023-04-17T23:46:02.214Z,100.00
2023-04-17T23:48:28.992Z,100.00
2023-04-17T23:50:56.034Z,100.00
2023-04-17T23:53:23.042Z,100.00
2023-04-17T23:55:49.776Z,100.00
2023-04-17T23:58:16.567Z,100.00
